Time;durP1;ratioP1;P1;durP2;ratioP2;P2;SDS_P1;SDS_P2;PMS_P1;PMS_P2;Temp;Humidity;BMP_temperature;BMP_pressure;BME280_temperature;BME280_humidity;BME280_pressure;Samples;Min_cycle;Max_cycle;Signal;HPM_P1;HPM_P2
2022/10/15 00:01:40;;;;;;;1.47;1.37;;;13.80;99.90;;;;;;4999210;28;20760;-71
2022/10/15 00:04:05;;;;;;;1.43;1.33;;;13.80;99.90;;;;;;4995940;28;20218;-71
2022/10/15 00:06:31;;;;;;;1.00;1.00;;;13.80;99.90;;;;;;5000845;28;20183;-71
2022/10/15 00:08:56;;;;;;;1.57;1.30;;;13.80;99.90;;;;;;4998019;28;20179;-71
2022/10/15 00:11:24;;;;;;;1.20;1.10;;;13.70;99.90;;;;;;4999402;28;20620;-71
2022/10/15 00:13:53;;;;;;;1.20;1.20;;;13.80;99.90;;;;;;4998517;28;20345;-71
2022/10/15 00:16:21;;;;;;;1.07;0.97;;;13.80;99.90;;;;;;4999886;28;20442;-71
2022/10/15 00:18:47;;;;;;;1.23;1.13;;;14.40;99.90;;;;;;4998512;28;20476;-71
2022/10/15 00:21:15;;;;;;;3.83;1.87;;;13.80;99.90;;;;;;4995510;28;20982;-71
2022/10/15 00:23:41;;;;;;;1.07;1.00;;;13.80;99.90;;;;;;4990206;28;20482;-71
2022/10/15 00:26:10;;;;;;;1.20;1.10;;;13.80;99.90;;;;;;4991146;28;20439;-71
2022/10/15 00:28:36;;;;;;;2.43;1.70;;;13.80;99.90;;;;;;4990013;28;20522;-71
2022/10/15 00:31:05;;;;;;;1.53;1.43;;;13.80;99.90;;;;;;4992691;28;20446;-71
2022/10/15 00:33:30;;;;;;;1.07;0.90;;;13.80;99.90;;;;;;4994234;28;20516;-71
2022/10/15 00:36:09;;;;;;;1.20;1.10;;;13.90;99.90;;;;;;4994104;28;20451;-71
2022/10/15 00:38:35;;;;;;;1.10;1.00;;;13.90;99.90;;;;;;4994419;28;20183;-72
2022/10/15 00:41:00;;;;;;;1.53;1.20;;;13.80;99.90;;;;;;4998474;28;20448;-72
2022/10/15 00:43:35;;;;;;;3.47;1.43;;;13.80;99.90;;;;;;4993664;28;20262;-72
2022/10/15 00:46:01;;;;;;;1.10;1.00;;;13.90;99.90;;;;;;4993157;28;20485;-72
2022/10/15 00:48:29;;;;;;;0.93;0.93;;;13.90;99.90;;;;;;4993873;28;20434;-71
2022/10/15 00:50:54;;;;;;;1.20;0.90;;;13.90;99.90;;;;;;4992485;28;20194;-72
2022/10/15 00:53:20;;;;;;;0.80;0.80;;;13.90;99.90;;;;;;4992938;28;20529;-72
2022/10/15 00:55:46;;;;;;;1.70;0.80;;;13.90;99.90;;;;;;4994140;28;20199;-72
2022/10/15 00:58:26;;;;;;;0.80;0.80;;;13.90;99.90;;;;;;4992603;28;20295;-72
2022/10/15 01:00:52;;;;;;;1.10;0.90;;;13.90;99.90;;;;;;5011505;28;20202;-72
2022/10/15 01:03:18;;;;;;;1.33;1.27;;;14.00;99.90;;;;;;4992874;28;20504;-72
2022/10/15 01:05:47;;;;;;;1.70;0.90;;;13.90;99.90;;;;;;4994315;28;20438;-72
2022/10/15 01:08:12;;;;;;;1.13;0.97;;;13.90;99.90;;;;;;4988586;28;20179;-71
2022/10/15 01:10:56;;;;;;;2.27;0.80;;;13.90;99.90;;;;;;4992755;28;20441;-71
2022/10/15 01:13:41;;;;;;;1.83;1.00;;;14.00;99.90;;;;;;4993239;28;20231;-71
2022/10/15 01:16:28;;;;;;;1.20;1.10;;;14.00;99.90;;;;;;4993365;28;20430;-72
2022/10/15 01:19:03;;;;;;;1.37;1.27;;;14.00;99.90;;;;;;4989333;28;20847;-71
2022/10/15 01:21:43;;;;;;;1.00;0.90;;;14.00;99.90;;;;;;4993940;28;20497;-71
2022/10/15 01:24:27;;;;;;;1.30;1.07;;;14.00;99.90;;;;;;4990846;28;20478;-72
2022/10/15 01:27:19;;;;;;;1.63;0.80;;;14.00;99.90;;;;;;4993290;28;20844;-72
2022/10/15 01:30:04;;;;;;;3.97;1.53;;;14.00;99.90;;;;;;4996724;28;20529;-72
2022/10/15 01:32:37;;;;;;;1.33;1.23;;;14.00;99.90;;;;;;4991336;28;20609;-72
2022/10/15 01:35:44;;;;;;;2.07;0.90;;;14.10;99.90;;;;;;4994423;28;20431;-71
2022/10/15 01:38:22;;;;;;;1.73;0.80;;;14.00;99.90;;;;;;4990285;28;20446;-72
2022/10/15 01:41:08;;;;;;;2.30;0.90;;;14.10;99.90;;;;;;4993094;28;20437;-72
2022/10/15 01:43:44;;;;;;;2.10;0.70;;;14.10;99.90;;;;;;4993259;28;20469;-72
2022/10/15 01:46:16;;;;;;;1.57;0.80;;;14.10;99.90;;;;;;4992646;28;20473;-72
2022/10/15 01:48:42;;;;;;;2.27;0.70;;;14.10;99.90;;;;;;4992857;28;20442;-72
2022/10/15 01:51:10;;;;;;;4.47;1.40;;;14.10;99.90;;;;;;4993614;28;20443;-72
2022/10/15 01:53:38;;;;;;;2.30;1.30;;;14.10;99.90;;;;;;4990956;28;21146;-71
2022/10/15 01:56:10;;;;;;;1.13;0.73;;;14.10;99.90;;;;;;4992603;28;20789;-72
2022/10/15 01:58:42;;;;;;;0.77;0.77;;;14.10;99.90;;;;;;4991770;28;20445;-72
2022/10/15 02:01:07;;;;;;;1.50;0.93;;;14.20;99.90;;;;;;4991883;28;20445;-72
2022/10/15 02:03:49;;;;;;;1.13;1.03;;;14.70;99.90;;;;;;4993643;28;20988;-72
2022/10/15 02:06:42;;;;;;;1.00;0.87;;;14.20;99.90;;;;;;4992398;28;20517;-72
2022/10/15 02:09:15;;;;;;;1.17;1.07;;;14.80;99.90;;;;;;4990436;28;20529;-72
2022/10/15 02:11:58;;;;;;;1.23;0.90;;;14.20;99.90;;;;;;4991875;28;20442;-72
2022/10/15 02:14:37;;;;;;;1.13;0.77;;;14.20;99.90;;;;;;4989826;28;20449;-72
2022/10/15 02:17:09;;;;;;;1.20;0.80;;;14.10;99.90;;;;;;4992446;28;20435;-72
2022/10/15 02:19:40;;;;;;;0.90;0.70;;;14.20;99.90;;;;;;4990037;28;20426;-72
2022/10/15 02:22:22;;;;;;;0.70;0.70;;;14.30;99.90;;;;;;4992759;28;20908;-72
2022/10/15 02:24:48;;;;;;;5.30;1.00;;;14.30;99.90;;;;;;4990878;28;20435;-72
2022/10/15 02:27:15;;;;;;;1.17;0.70;;;14.30;99.90;;;;;;4992879;28;20427;-73
2022/10/15 02:29:43;;;;;;;3.57;1.30;;;14.30;99.90;;;;;;4992018;28;20218;-72
2022/10/15 02:32:10;;;;;;;1.57;0.80;;;14.30;99.90;;;;;;4991686;28;20585;-73
2022/10/15 02:34:36;;;;;;;2.20;1.00;;;14.30;99.90;;;;;;4990980;28;20522;-73
2022/10/15 02:37:04;;;;;;;1.20;1.10;;;14.30;99.90;;;;;;4992538;28;20442;-72
2022/10/15 02:39:29;;;;;;;0.93;0.93;;;14.30;99.90;;;;;;4991375;28;20431;-72
2022/10/15 02:41:56;;;;;;;0.60;0.60;;;14.40;99.90;;;;;;4993785;28;20436;-69
2022/10/15 02:44:21;;;;;;;0.70;0.70;;;14.30;99.90;;;;;;4991042;28;20175;-74
2022/10/15 02:46:47;;;;;;;1.60;1.37;;;14.40;99.90;;;;;;4991524;28;20426;-74
2022/10/15 02:49:13;;;;;;;1.27;1.00;;;14.80;99.90;;;;;;4991907;28;20530;-72
2022/10/15 02:51:38;;;;;;;1.33;0.90;;;14.40;99.90;;;;;;4992073;28;20214;-74
2022/10/15 02:54:05;;;;;;;1.67;0.80;;;14.40;99.90;;;;;;4990655;28;20235;-72
2022/10/15 02:56:31;;;;;;;0.80;0.80;;;14.40;99.90;;;;;;4990678;28;20187;-73
2022/10/15 02:58:57;;;;;;;1.67;0.70;;;14.50;99.90;;;;;;4991285;28;20843;-75
2022/10/15 03:01:22;;;;;;;1.40;1.33;;;14.40;99.90;;;;;;4991796;28;20476;-74
2022/10/15 03:03:48;;;;;;;0.73;0.73;;;14.40;99.90;;;;;;4991824;28;20207;-75
2022/10/15 03:06:14;;;;;;;0.83;0.80;;;14.50;99.90;;;;;;4991906;28;20187;-73
2022/10/15 03:08:41;;;;;;;0.70;0.70;;;14.50;99.90;;;;;;4990460;28;20263;-73
2022/10/15 03:11:07;;;;;;;2.30;0.70;;;14.50;99.90;;;;;;4992045;28;20492;-74
2022/10/15 03:13:36;;;;;;;2.23;1.07;;;14.50;99.90;;;;;;4999091;28;21222;-72
2022/10/15 03:16:05;;;;;;;1.50;0.73;;;14.40;99.90;;;;;;4987210;28;20441;-74
2022/10/15 03:18:31;;;;;;;0.80;0.77;;;14.50;99.90;;;;;;4990093;28;20481;-72
2022/10/15 03:20:58;;;;;;;3.13;0.80;;;14.50;99.90;;;;;;4989534;28;20474;-74
2022/10/15 03:23:23;;;;;;;0.87;0.87;;;14.50;99.90;;;;;;4991396;28;20215;-74
2022/10/15 03:25:49;;;;;;;0.73;0.70;;;14.60;99.90;;;;;;4990623;28;20457;-72
2022/10/15 03:28:15;;;;;;;0.70;0.60;;;14.60;99.90;;;;;;4991329;28;20461;-74
2022/10/15 03:30:42;;;;;;;1.03;0.70;;;14.60;99.90;;;;;;4991432;28;20198;-72
2022/10/15 03:33:07;;;;;;;0.70;0.70;;;14.60;99.90;;;;;;4990697;28;20223;-74
2022/10/15 03:35:33;;;;;;;1.60;0.70;;;14.70;99.90;;;;;;4991686;28;20453;-72
2022/10/15 03:37:58;;;;;;;0.73;0.73;;;14.60;99.90;;;;;;4990114;28;20225;-72
2022/10/15 03:40:24;;;;;;;2.50;0.87;;;14.60;99.90;;;;;;4991349;28;20194;-74
2022/10/15 03:42:50;;;;;;;0.60;0.60;;;14.60;99.90;;;;;;4990665;28;20570;-72
2022/10/15 03:45:18;;;;;;;0.50;0.50;;;14.70;99.90;;;;;;4988398;28;20187;-72
2022/10/15 03:47:43;;;;;;;0.67;0.67;;;14.60;99.90;;;;;;4990857;28;21019;-74
2022/10/15 03:50:09;;;;;;;1.97;0.73;;;14.70;99.90;;;;;;4997633;28;20572;-73
2022/10/15 03:52:35;;;;;;;0.77;0.60;;;14.70;99.90;;;;;;4998135;28;20244;-71
2022/10/15 03:55:01;;;;;;;0.80;0.77;;;14.70;99.90;;;;;;5000872;28;20194;-73
2022/10/15 03:57:27;;;;;;;3.97;0.87;;;14.70;99.90;;;;;;5002463;28;20435;-72
2022/10/15 03:59:52;;;;;;;0.90;0.73;;;14.70;99.90;;;;;;5001885;28;20182;-72
2022/10/15 04:02:18;;;;;;;0.93;0.80;;;14.70;99.90;;;;;;4996430;28;20298;-74
2022/10/15 04:04:43;;;;;;;1.20;1.10;;;14.70;99.90;;;;;;4995187;28;20189;-72
2022/10/15 04:07:09;;;;;;;1.83;0.87;;;14.70;99.90;;;;;;4996131;28;20808;-72
2022/10/15 04:09:34;;;;;;;0.93;0.73;;;14.70;99.90;;;;;;5005942;28;20176;-74
2022/10/15 04:12:00;;;;;;;0.70;0.70;;;14.70;99.90;;;;;;5009611;28;20170;-72
2022/10/15 04:14:25;;;;;;;0.80;0.80;;;14.70;99.90;;;;;;5009168;28;20179;-74
2022/10/15 04:16:51;;;;;;;4.13;0.80;;;14.70;99.90;;;;;;5005736;28;20190;-72
2022/10/15 04:19:16;;;;;;;1.23;0.80;;;14.80;99.90;;;;;;4998604;28;20175;-72
2022/10/15 04:21:42;;;;;;;0.53;0.53;;;14.70;99.90;;;;;;4997411;28;20176;-72
2022/10/15 04:24:08;;;;;;;1.43;0.73;;;14.70;99.90;;;;;;5007251;28;20198;-72
2022/10/15 04:26:34;;;;;;;2.10;0.60;;;14.70;99.90;;;;;;5007802;28;20189;-72
2022/10/15 04:28:59;;;;;;;0.70;0.50;;;14.60;99.90;;;;;;5002267;28;20478;-72
2022/10/15 04:31:25;;;;;;;1.47;0.83;;;14.70;99.90;;;;;;5015118;28;20182;-72
2022/10/15 04:33:50;;;;;;;0.60;0.60;;;14.70;99.90;;;;;;5003773;28;20680;-72
2022/10/15 04:36:16;;;;;;;0.60;0.60;;;14.60;99.90;;;;;;5004878;28;20202;-72
2022/10/15 04:38:41;;;;;;;0.50;0.50;;;14.70;99.90;;;;;;5005519;28;20188;-72
2022/10/15 04:41:09;;;;;;;4.53;0.70;;;14.70;99.90;;;;;;5007293;28;20252;-73
2022/10/15 04:43:35;;;;;;;0.80;0.70;;;14.70;99.90;;;;;;5006688;28;20214;-72
2022/10/15 04:46:03;;;;;;;0.80;0.80;;;14.70;99.90;;;;;;5005856;28;20521;-72
2022/10/15 04:48:30;;;;;;;1.00;0.53;;;14.70;99.90;;;;;;5006267;28;20430;-72
2022/10/15 04:51:06;;;;;;;1.00;0.70;;;14.70;99.90;;;;;;5005982;28;20429;-72
2022/10/15 04:53:32;;;;;;;1.50;0.60;;;14.70;99.90;;;;;;5004753;28;20465;-72
2022/10/15 04:56:06;;;;;;;3.13;0.60;;;14.70;99.90;;;;;;5005708;28;20821;-72
2022/10/15 04:58:33;;;;;;;0.80;0.80;;;14.70;99.90;;;;;;5008236;28;20618;-72
2022/10/15 05:01:03;;;;;;;0.50;0.50;;;14.80;99.90;;;;;;5004734;28;20464;-72
2022/10/15 05:03:30;;;;;;;1.90;0.60;;;14.70;99.90;;;;;;4996143;28;20466;-72
2022/10/15 05:06:06;;;;;;;2.20;0.80;;;14.70;99.90;;;;;;5000466;28;20794;-72
2022/10/15 05:08:33;;;;;;;0.70;0.70;;;14.70;99.90;;;;;;4996600;28;20500;-72
2022/10/15 05:11:00;;;;;;;1.10;0.80;;;14.60;99.90;;;;;;4996868;28;20517;-72
2022/10/15 05:13:26;;;;;;;0.70;0.60;;;14.60;99.90;;;;;;4995768;28;20470;-72
2022/10/15 05:15:51;;;;;;;0.50;0.50;;;14.60;99.90;;;;;;5000099;28;20492;-72
2022/10/15 05:18:17;;;;;;;2.00;0.77;;;14.70;99.90;;;;;;4992058;28;20187;-72
2022/10/15 05:20:43;;;;;;;1.23;0.80;;;14.70;99.90;;;;;;4993256;28;20183;-72
2022/10/15 05:23:08;;;;;;;2.87;0.70;;;14.60;99.90;;;;;;4991684;28;20211;-73
2022/10/15 05:25:34;;;;;;;0.87;0.87;;;14.60;99.90;;;;;;4993710;28;20179;-73
2022/10/15 05:27:59;;;;;;;0.60;0.60;;;14.50;99.90;;;;;;4994419;28;20548;-73
2022/10/15 05:30:25;;;;;;;1.87;0.70;;;14.60;99.90;;;;;;4997132;28;20223;-73
2022/10/15 05:32:52;;;;;;;1.00;0.80;;;14.50;99.90;;;;;;4994320;28;21791;-73
2022/10/15 05:35:17;;;;;;;1.03;0.80;;;14.50;99.90;;;;;;4996788;28;20270;-73
2022/10/15 05:37:43;;;;;;;1.00;1.00;;;14.50;99.90;;;;;;4996698;28;20473;-73
2022/10/15 05:40:09;;;;;;;1.50;1.00;;;14.50;99.90;;;;;;4999142;28;20186;-73
2022/10/15 05:42:34;;;;;;;1.60;1.27;;;14.50;99.90;;;;;;4995109;28;20782;-73
2022/10/15 05:45:00;;;;;;;1.10;1.00;;;14.50;99.90;;;;;;4991252;28;20485;-73
2022/10/15 05:47:25;;;;;;;2.80;0.93;;;14.50;99.90;;;;;;4993475;28;20258;-73
2022/10/15 05:49:51;;;;;;;1.80;0.70;;;14.50;99.90;;;;;;4989301;28;20172;-73
2022/10/15 05:52:17;;;;;;;2.77;0.90;;;14.60;99.90;;;;;;5003388;28;20202;-73
2022/10/15 05:54:42;;;;;;;1.53;1.07;;;14.50;99.90;;;;;;5003322;28;20179;-73
2022/10/15 05:57:08;;;;;;;2.00;1.03;;;14.50;99.90;;;;;;4999405;28;20172;-73
2022/10/15 05:59:33;;;;;;;2.30;0.83;;;14.50;99.90;;;;;;5002813;28;20179;-72
2022/10/15 06:01:59;;;;;;;3.90;1.27;;;14.50;99.90;;;;;;5000880;28;20203;-73
2022/10/15 06:04:24;;;;;;;2.20;1.10;;;14.50;99.90;;;;;;5001735;28;20648;-73
2022/10/15 06:06:50;;;;;;;1.23;1.13;;;14.50;99.90;;;;;;4996143;28;20207;-73
2022/10/15 06:09:15;;;;;;;1.17;1.07;;;14.50;99.90;;;;;;4998658;28;20179;-72
2022/10/15 06:11:41;;;;;;;1.40;1.30;;;14.50;99.90;;;;;;5001348;28;20218;-72
2022/10/15 06:14:06;;;;;;;3.97;1.13;;;14.40;99.90;;;;;;5003075;28;20199;-73
2022/10/15 06:16:32;;;;;;;2.40;1.20;;;14.40;99.90;;;;;;4991044;28;20197;-72
2022/10/15 06:18:58;;;;;;;2.93;1.10;;;14.50;99.90;;;;;;5003348;28;20234;-72
2022/10/15 06:21:23;;;;;;;1.27;1.17;;;14.50;99.90;;;;;;5000810;28;20187;-73
2022/10/15 06:23:49;;;;;;;1.70;1.10;;;14.50;99.90;;;;;;5000454;28;20202;-73
2022/10/15 06:26:15;;;;;;;1.43;1.33;;;14.50;99.90;;;;;;4998368;28;20175;-73
2022/10/15 06:28:40;;;;;;;1.70;1.10;;;14.50;99.90;;;;;;5000493;28;20184;-73
2022/10/15 06:31:06;;;;;;;1.97;1.27;;;14.50;99.90;;;;;;5005667;28;20203;-73
2022/10/15 06:33:33;;;;;;;3.13;1.37;;;14.50;99.90;;;;;;5000614;28;20242;-73
2022/10/15 06:36:01;;;;;;;3.00;1.20;;;14.50;99.90;;;;;;4998406;28;20442;-73
2022/10/15 06:38:26;;;;;;;1.37;1.27;;;14.50;99.90;;;;;;4998072;28;20443;-73
2022/10/15 06:40:52;;;;;;;6.30;1.30;;;14.40;99.90;;;;;;4997180;28;20452;-73
2022/10/15 06:43:18;;;;;;;1.60;1.17;;;14.50;99.90;;;;;;4998272;28;20692;-73
2022/10/15 06:45:44;;;;;;;3.03;1.40;;;14.50;99.90;;;;;;4999894;28;20551;-73
2022/10/15 06:48:10;;;;;;;3.10;1.60;;;14.50;99.90;;;;;;5004605;28;20168;-73
2022/10/15 06:50:37;;;;;;;2.80;1.50;;;14.50;99.90;;;;;;5018826;28;20437;-73
2022/10/15 06:53:03;;;;;;;2.70;2.50;;;14.50;99.90;;;;;;4998761;28;20679;-73
2022/10/15 06:55:29;;;;;;;1.60;1.50;;;14.50;99.90;;;;;;5002829;28;20433;-73
2022/10/15 06:57:55;;;;;;;2.13;1.47;;;14.60;99.90;;;;;;4994011;28;20817;-73
2022/10/15 07:00:21;;;;;;;1.17;1.10;;;14.50;99.90;;;;;;5002909;28;20182;-73
2022/10/15 07:02:47;;;;;;;2.93;1.10;;;14.50;99.90;;;;;;4995673;28;20473;-73
2022/10/15 07:05:12;;;;;;;1.40;1.30;;;14.50;99.90;;;;;;4998902;28;20454;-73
2022/10/15 07:07:38;;;;;;;2.13;1.70;;;14.50;99.90;;;;;;4995535;28;20180;-73
2022/10/15 07:10:04;;;;;;;1.83;1.73;;;14.50;99.90;;;;;;4992601;28;20562;-73
2022/10/15 07:12:29;;;;;;;1.67;1.57;;;14.50;99.90;;;;;;4995402;28;20800;-73
2022/10/15 07:14:55;;;;;;;2.33;2.10;;;14.50;99.90;;;;;;4996635;28;20469;-73
2022/10/15 07:17:20;;;;;;;1.93;1.40;;;14.60;99.90;;;;;;4996400;28;20649;-73
2022/10/15 07:19:46;;;;;;;3.57;2.00;;;14.60;99.90;;;;;;4995121;28;20254;-73
2022/10/15 07:22:12;;;;;;;2.57;2.00;;;14.70;99.90;;;;;;4990964;28;20570;-73
2022/10/15 07:24:37;;;;;;;1.73;1.63;;;14.70;99.90;;;;;;4993278;28;20183;-73
2022/10/15 07:27:03;;;;;;;3.60;1.90;;;14.70;99.90;;;;;;4992039;28;20210;-73
2022/10/15 07:29:30;;;;;;;1.90;1.63;;;14.80;99.90;;;;;;4993031;28;20595;-73
2022/10/15 07:31:55;;;;;;;3.03;2.73;;;14.80;99.90;;;;;;4989973;28;20198;-73
2022/10/15 07:34:21;;;;;;;3.20;1.70;;;14.80;99.90;;;;;;4992136;28;20992;-73
2022/10/15 07:36:47;;;;;;;2.57;1.70;;;14.90;99.90;;;;;;4999737;28;20171;-73
2022/10/15 07:39:12;;;;;;;1.70;1.60;;;14.90;99.90;;;;;;4991455;28;20222;-73
2022/10/15 07:41:38;;;;;;;2.30;2.10;;;15.00;99.90;;;;;;4997771;28;20820;-73
2022/10/15 07:44:04;;;;;;;3.10;2.53;;;14.90;99.90;;;;;;5004577;28;20215;-74
2022/10/15 07:46:29;;;;;;;1.53;1.43;;;14.90;99.90;;;;;;4988160;28;20258;-74
2022/10/15 07:48:55;;;;;;;4.13;1.60;;;14.90;99.90;;;;;;4992776;28;20434;-74
2022/10/15 07:51:21;;;;;;;3.80;1.50;;;14.70;99.90;;;;;;4999411;28;20693;-74
2022/10/15 07:53:46;;;;;;;4.80;1.60;;;15.00;99.90;;;;;;5001009;28;20724;-74
2022/10/15 07:56:14;;;;;;;2.17;1.77;;;14.90;99.90;;;;;;4996118;28;20203;-74
2022/10/15 07:58:41;;;;;;;1.20;1.10;;;14.80;99.90;;;;;;5001867;28;20179;-73
2022/10/15 08:01:09;;;;;;;1.70;1.57;;;14.90;99.90;;;;;;5003477;28;20438;-74
2022/10/15 08:03:36;;;;;;;1.70;1.50;;;15.10;99.90;;;;;;4990490;28;20557;-74
2022/10/15 08:06:06;;;;;;;2.03;1.50;;;15.10;99.90;;;;;;4999847;28;20446;-74
2022/10/15 08:08:33;;;;;;;1.70;1.60;;;15.20;99.90;;;;;;4989094;28;20465;-74
2022/10/15 08:11:14;;;;;;;5.07;4.57;;;15.20;99.90;;;;;;4999839;28;20440;-74
2022/10/15 08:13:41;;;;;;;3.90;3.60;;;15.20;99.90;;;;;;4998354;28;20565;-74
2022/10/15 08:16:08;;;;;;;2.90;2.70;;;15.20;99.90;;;;;;5000194;28;20492;-73
2022/10/15 08:18:34;;;;;;;5.53;4.13;;;15.30;99.90;;;;;;5000486;28;21148;-73
2022/10/15 08:21:00;;;;;;;4.47;2.80;;;15.30;99.90;;;;;;4998798;28;20521;-73
2022/10/15 08:23:26;;;;;;;4.87;4.47;;;15.30;99.90;;;;;;4995915;28;20472;-73
2022/10/15 08:25:52;;;;;;;2.67;2.47;;;15.40;99.90;;;;;;5003204;28;20437;-74
2022/10/15 08:28:17;;;;;;;2.37;2.17;;;16.00;99.90;;;;;;4999173;28;20800;-74
2022/10/15 08:30:43;;;;;;;2.80;2.60;;;15.50;99.90;;;;;;5001659;28;20183;-74
2022/10/15 08:33:08;;;;;;;3.93;2.77;;;15.60;99.90;;;;;;4992162;28;20250;-74
2022/10/15 08:35:37;;;;;;;3.27;3.07;;;15.50;99.90;;;;;;5000138;28;20552;-74
2022/10/15 08:38:03;;;;;;;1.53;0.90;;;15.60;99.90;;;;;;5002930;28;20668;-74
2022/10/15 08:40:28;;;;;;;2.00;1.87;;;15.70;99.90;;;;;;4993856;28;20442;-74
2022/10/15 08:42:55;;;;;;;5.03;4.73;;;15.70;99.90;;;;;;4997568;28;20555;-73
2022/10/15 08:45:28;;;;;;;3.17;2.97;;;15.80;99.90;;;;;;4999343;28;20188;-73
2022/10/15 08:48:02;;;;;;;2.57;2.03;;;15.80;99.90;;;;;;4989301;28;20524;-73
2022/10/15 08:50:50;;;;;;;3.80;1.70;;;15.80;99.90;;;;;;5001709;28;20498;-73
2022/10/15 08:53:22;;;;;;;1.33;1.23;;;15.70;99.90;;;;;;4989388;28;20468;-73
2022/10/15 08:55:51;;;;;;;2.60;1.30;;;15.70;99.90;;;;;;4991596;28;20525;-74
2022/10/15 08:58:44;;;;;;;1.70;1.60;;;15.60;99.90;;;;;;4993439;28;20957;-70
2022/10/15 09:01:23;;;;;;;1.50;1.40;;;15.60;99.90;;;;;;4992525;28;20438;-69
2022/10/15 09:04:33;;;;;;;1.63;1.53;;;15.70;99.90;;;;;;4993695;28;20462;-70
2022/10/15 09:07:20;;;;;;;2.10;2.00;;;15.70;99.90;;;;;;4993709;28;20533;-70
2022/10/15 09:09:52;;;;;;;2.20;1.83;;;15.80;99.90;;;;;;5004855;28;20431;-74
2022/10/15 09:12:55;;;;;;;3.73;3.40;;;15.80;99.90;;;;;;4996756;28;20466;-73
2022/10/15 09:15:23;;;;;;;1.60;1.17;;;15.90;99.90;;;;;;4994242;28;20438;-72
2022/10/15 09:17:51;;;;;;;3.63;1.67;;;15.90;99.90;;;;;;4995238;28;20435;-69
2022/10/15 09:20:20;;;;;;;1.60;1.50;;;15.90;99.90;;;;;;4997115;28;20803;-69
2022/10/15 09:22:49;;;;;;;2.70;1.60;;;15.90;99.90;;;;;;5002279;28;20902;-69
2022/10/15 09:25:20;;;;;;;2.43;1.80;;;16.00;99.90;;;;;;5000908;28;20433;-69
2022/10/15 09:27:48;;;;;;;2.60;2.20;;;16.20;99.90;;;;;;4998412;28;20509;-70
2022/10/15 09:30:25;;;;;;;2.90;2.60;;;16.30;99.90;;;;;;5004359;28;20947;-69
2022/10/15 09:33:19;;;;;;;1.10;1.00;;;16.30;99.90;;;;;;5003761;28;20989;-69
2022/10/15 09:35:51;;;;;;;1.90;1.57;;;16.30;99.90;;;;;;4997372;28;20442;-72
2022/10/15 09:38:42;;;;;;;1.17;0.90;;;16.30;99.90;;;;;;4995819;28;20457;-69
2022/10/15 09:41:46;;;;;;;2.30;0.83;;;16.40;99.90;;;;;;4993621;28;20798;-70
2022/10/15 09:44:13;;;;;;;0.80;0.80;;;16.50;99.90;;;;;;4992669;28;20473;-69
2022/10/15 09:46:44;;;;;;;1.53;1.20;;;16.90;99.90;;;;;;4992447;28;20463;-72
2022/10/15 09:49:24;;;;;;;1.40;0.80;;;17.60;99.90;;;;;;4991191;28;20999;-68
2022/10/15 09:52:14;;;;;;;0.87;0.77;;;18.60;99.90;;;;;;4991666;28;20453;-69
2022/10/15 09:55:01;;;;;;;5.03;1.60;;;19.60;99.90;;;;;;4989509;28;20466;-71
2022/10/15 09:57:28;;;;;;;1.20;0.60;;;19.50;99.90;;;;;;4988411;28;20438;-70
2022/10/15 09:59:59;;;;;;;1.30;1.10;;;19.30;99.90;;;;;;4990997;28;20446;-71
2022/10/15 10:02:25;;;;;;;2.60;0.60;;;19.10;99.90;;;;;;4991543;28;20513;-71
2022/10/15 10:04:52;;;;;;;1.57;1.00;;;19.40;99.90;;;;;;4991048;28;20430;-70
2022/10/15 10:07:29;;;;;;;1.90;1.13;;;19.20;99.90;;;;;;4993573;28;20442;-67
2022/10/15 10:09:56;;;;;;;0.80;0.80;;;19.20;99.90;;;;;;4991272;28;20428;-67
2022/10/15 10:12:26;;;;;;;3.20;1.87;;;19.60;99.90;;;;;;4991604;28;20473;-69
2022/10/15 10:14:55;;;;;;;3.43;1.37;;;21.20;99.90;;;;;;4989283;28;20466;-68
2022/10/15 10:17:26;;;;;;;0.90;0.90;;;22.60;99.90;;;;;;5002172;28;20989;-69
2022/10/15 10:20:06;;;;;;;1.77;0.90;;;24.00;99.90;;;;;;4989240;28;20533;-72
2022/10/15 10:22:43;;;;;;;3.47;1.63;;;25.80;99.90;;;;;;4992591;28;20837;-71
2022/10/15 10:25:31;;;;;;;1.17;0.90;;;26.30;99.90;;;;;;4992544;28;20431;-71
2022/10/15 10:27:58;;;;;;;2.07;0.97;;;26.10;99.90;;;;;;4996315;28;20474;-72
2022/10/15 10:30:24;;;;;;;5.20;1.30;;;26.80;99.90;;;;;;4991415;28;20492;-71
2022/10/15 10:32:57;;;;;;;1.60;0.83;;;26.00;99.90;;;;;;5004099;28;20457;-71
2022/10/15 10:35:34;;;;;;;2.83;0.93;;;25.20;99.90;;;;;;5004006;28;20183;-69
2022/10/15 10:38:00;;;;;;;0.87;0.83;;;25.80;99.90;;;;;;5002393;28;20459;-70
2022/10/15 10:40:34;;;;;;;1.63;1.53;;;25.50;99.90;;;;;;4996911;28;20811;-69
2022/10/15 10:43:14;;;;;;;0.93;0.83;;;25.80;99.90;;;;;;4994570;28;20457;-68
2022/10/15 10:46:01;;;;;;;1.60;1.30;;;26.80;99.90;;;;;;5002673;28;20476;-71
2022/10/15 10:48:40;;;;;;;1.97;0.90;;;27.90;99.90;;;;;;5000758;28;20434;-71
2022/10/15 10:51:27;;;;;;;1.80;0.90;;;28.20;99.90;;;;;;5004364;28;20468;-70
2022/10/15 10:54:02;;;;;;;6.83;0.90;;;28.10;99.90;;;;;;4996621;28;20497;-69
2022/10/15 10:56:36;;;;;;;3.23;1.57;;;26.70;99.90;;;;;;5000879;28;20449;-70
2022/10/15 10:59:19;;;;;;;1.80;1.00;;;25.30;99.90;;;;;;5003319;28;20444;-69
2022/10/15 11:01:46;;;;;;;1.10;1.00;;;23.90;99.90;;;;;;5001899;28;20507;-74
2022/10/15 11:04:18;;;;;;;2.20;1.13;;;23.20;99.90;;;;;;5000016;28;20470;-73
2022/10/15 11:06:57;;;;;;;2.83;1.20;;;22.50;99.90;;;;;;5003024;28;20427;-74
2022/10/15 11:09:29;;;;;;;2.20;1.50;;;22.10;99.90;;;;;;5004014;28;20468;-76
2022/10/15 11:12:02;;;;;;;1.90;1.07;;;21.80;99.90;;;;;;4995695;28;20939;-76
2022/10/15 11:14:32;;;;;;;1.70;1.30;;;21.60;99.90;;;;;;4999429;28;20442;-75
2022/10/15 11:17:30;;;;;;;2.73;2.53;;;21.60;99.90;;;;;;5008701;28;20437;-75
2022/10/15 11:20:12;;;;;;;1.20;1.10;;;21.60;99.90;;;;;;4994934;28;20520;-72
2022/10/15 11:22:49;;;;;;;2.30;1.20;;;21.80;99.90;;;;;;5001770;28;20586;-74
2022/10/15 11:25:40;;;;;;;1.23;1.13;;;22.50;99.90;;;;;;5003941;28;20846;-75
2022/10/15 11:28:17;;;;;;;1.93;1.83;;;22.30;99.90;;;;;;4993192;28;20437;-75
2022/10/15 11:31:09;;;;;;;2.60;1.13;;;21.90;99.90;;;;;;5001250;28;20434;-75
2022/10/15 11:34:04;;;;;;;1.17;1.07;;;21.80;99.90;;;;;;5003798;28;20454;-73
2022/10/15 11:36:44;;;;;;;2.70;1.10;;;21.50;99.90;;;;;;5001568;28;20649;-73
2022/10/15 11:39:28;;;;;;;2.10;1.50;;;21.70;99.90;;;;;;5003658;28;20437;-73
2022/10/15 11:42:11;;;;;;;3.70;0.93;;;21.80;99.90;;;;;;4993984;28;20955;-73
2022/10/15 11:45:14;;;;;;;2.37;1.47;;;21.50;99.90;;;;;;4998111;28;21002;-74
2022/10/15 11:48:01;;;;;;;2.00;1.67;;;21.60;99.90;;;;;;5001185;28;20503;-74
2022/10/15 11:50:38;;;;;;;2.00;1.70;;;22.50;99.90;;;;;;5001669;28;20463;-74
2022/10/15 11:53:49;;;;;;;3.17;1.60;;;23.30;99.90;;;;;;4997368;28;20834;-74
2022/10/15 11:56:25;;;;;;;1.27;1.00;;;23.80;99.90;;;;;;4994780;28;20470;-74
2022/10/15 11:58:59;;;;;;;1.40;1.27;;;24.50;99.90;;;;;;4998045;28;20462;-74
2022/10/15 12:02:06;;;;;;;2.50;0.80;;;25.10;99.90;;;;;;4999597;28;20441;-74
2022/10/15 12:04:45;;;;;;;0.97;0.97;;;26.00;99.90;;;;;;5005896;28;20473;-74
2022/10/15 12:07:17;;;;;;;1.40;1.30;;;26.90;99.90;;;;;;5009032;28;20445;-75
2022/10/15 12:09:47;;;;;;;1.33;1.07;;;28.20;99.10;;;;;;5000828;28;20447;-74
2022/10/15 12:12:34;;;;;;;3.57;1.00;;;28.00;97.80;;;;;;5003181;28;20445;-74
2022/10/15 12:15:38;;;;;;;1.60;1.30;;;27.60;97.90;;;;;;4992824;28;20433;-74
2022/10/15 12:18:24;;;;;;;2.50;1.50;;;25.50;99.90;;;;;;4990590;28;20449;-76
2022/10/15 12:20:54;;;;;;;1.10;1.00;;;23.90;99.90;;;;;;4999487;28;20438;-74
2022/10/15 12:23:40;;;;;;;3.43;1.10;;;22.60;99.90;;;;;;4999643;28;20466;-74
2022/10/15 12:26:27;;;;;;;2.90;1.10;;;21.80;99.90;;;;;;4993250;28;21046;-74
2022/10/15 12:28:55;;;;;;;3.90;1.10;;;21.10;99.90;;;;;;5002167;28;20846;-73
2022/10/15 12:31:23;;;;;;;1.73;1.63;;;20.60;99.90;;;;;;5004304;28;20457;-74
2022/10/15 12:33:53;;;;;;;1.37;1.27;;;20.20;99.90;;;;;;5012773;28;20967;-72
2022/10/15 12:36:29;;;;;;;1.87;1.37;;;20.00;99.90;;;;;;5000382;28;20521;-74
2022/10/15 12:39:06;;;;;;;1.57;1.00;;;19.70;99.90;;;;;;4991025;28;20964;-76
2022/10/15 12:41:44;;;;;;;2.03;1.20;;;19.60;99.90;;;;;;5008963;28;20835;-74
2022/10/15 12:44:32;;;;;;;2.30;2.10;;;19.70;99.90;;;;;;5003189;28;20495;-74
2022/10/15 12:46:59;;;;;;;1.90;1.80;;;19.60;99.90;;;;;;5001475;28;20437;-75
2022/10/15 12:49:31;;;;;;;2.13;1.07;;;19.50;99.90;;;;;;5007592;28;20429;-75
2022/10/15 12:51:58;;;;;;;1.10;1.00;;;19.30;99.90;;;;;;4997555;28;20433;-72
2022/10/15 12:54:46;;;;;;;1.27;1.10;;;19.30;99.90;;;;;;5000466;28;20454;-73
2022/10/15 12:57:29;;;;;;;1.77;1.17;;;19.30;99.90;;;;;;4994207;28;21006;-71
2022/10/15 12:59:59;;;;;;;1.93;1.37;;;19.10;99.90;;;;;;4993029;28;20458;-67
2022/10/15 13:02:51;;;;;;;1.60;1.20;;;18.60;99.90;;;;;;4992849;28;20461;-69
2022/10/15 13:05:28;;;;;;;3.33;1.60;;;18.00;99.90;;;;;;4995516;28;20447;-67
2022/10/15 13:07:56;;;;;;;1.20;1.10;;;17.80;99.90;;;;;;4994529;28;20528;-72
2022/10/15 13:10:31;;;;;;;1.40;1.30;;;17.80;99.90;;;;;;4998545;28;22268;-72